Latest Weather Observations for Norfolk Island

IDN60801

Issued at 12:22 pm EDT Thursday 21 March 2019 (issued every 10 minutes, with the page automatically refreshed every 10 minutes)

About weather observations | Map of weather stations | Latest weather observations for NSW | Other Formats
Station Details ID: 200288 Name: NORFOLK ISLAND AERO Lat: -29.04 Lon: 167.94 Height: 111.73 m
Data from the previous 72 hours. | See also: Recent months at Norfolk Island
Date/Time
EDT
Temp
°C
App
Temp
°C
Dew
Point
°C
Rel
Hum
%
Delta-T
°C
Wind Press
QNH
hPa
Press
MSL
hPa
Rain since
9am
mm
Dir  Spd
km/h
Gust
km/h
Spd
kts
Gust
kts
21/12:00pm 25.3 22.7 18.7 67 4.2 ENE 30 39 16 21 1019.3 1018.9 0.2
21/11:30am 24.6 22.3 18.5 69 3.9 ENE 28 35 15 19 1019.5 1019.1 0.2
21/11:00am 24.3 20.8 17.5 66 4.2 ENE 32 39 17 21 1019.5 1019.1 0.2
21/10:30am 24.8 22.7 19.0 70 3.7 ENE 28 37 15 20 1019.6 1019.2 0.2
21/10:00am 24.7 23.1 19.3 72 3.5 ENE 26 35 14 19 1019.8 1019.4 0.0
21/09:30am 24.2 22.0 18.6 71 3.6 ENE 28 39 15 21 1019.8 1019.4 0.0
21/09:00am 23.7 21.5 18.6 73 3.2 ENE 28 37 15 20 1019.6 1019.2 0.2
21/08:30am 21.7 20.8 18.3 81 2.1 NE 20 32 11 17 1019.5 1019.1 0.2
21/08:00am 23.4 21.8 19.3 78 2.6 ENE 26 33 14 18 1019.4 1019.0 0.2
21/07:30am 22.6 21.2 18.8 79 2.4 ENE 24 32 13 17 1019.2 1018.8 0.2
21/07:00am 22.1 20.4 18.1 78 2.5 ENE 24 32 13 17 1018.9 1018.4 0.2
21/06:30am 21.7 21.4 18.3 81 2.1 E 17 26 9 14 1018.8 1018.3 0.2
21/06:00am 21.2 20.7 17.8 81 2.1 ENE 17 24 9 13 1018.7 1018.2 0.2
21/05:30am 21.0 20.0 17.6 81 2.1 ENE 19 26 10 14 1018.3 1017.8 0.2
21/05:00am 21.1 20.2 17.7 81 2.1 ENE 19 26 10 14 1018.2 1017.7 0.2
21/04:30am 21.2 19.7 17.6 80 2.2 ENE 22 30 12 16 1017.9 1017.4 0.2
21/04:00am 21.1 20.1 17.9 82 2.0 ENE 20 28 11 15 1017.8 1017.3 0.2
21/03:30am 21.1 20.3 17.9 82 2.0 ENE 19 28 10 15 1017.9 1017.4 0.2
21/03:00am 21.1 20.3 18.1 83 1.9 ENE 19 28 10 15 1017.8 1017.3 0.2
21/02:30am 21.2 19.6 17.4 79 2.3 ENE 22 28 12 15 1017.9 1017.4 0.2
21/02:00am 21.2 20.1 17.8 81 2.1 ENE 20 30 11 16 1017.9 1017.4 0.2
21/01:30am 21.3 19.5 17.9 81 2.1 ENE 24 32 13 17 1018.2 1017.7 0.2
21/01:00am 21.2 20.5 18.6 85 1.6 ENE 20 32 11 17 1018.4 1017.9 0.2
21/12:34am 21.1 20.2 18.3 84 1.8 E 20 30 11 16 1018.4 1017.9 0.2
21/12:30am 21.2 20.1 18.6 85 1.6 E 22 30 12 16 1018.4 1017.9 0.2
21/12:00am 21.5 20.7 19.2 87 1.5 E 22 33 12 18 1018.4 1017.9 0.2
 
Date/Time
EDT
Temp
°C
App
Temp
°C
Dew
Point
°C
Rel
Hum
%
Delta-T
°C
Wind Press
QNH
hPa
Press
MSL
hPa
Rain since
9am
mm
Dir  Spd
km/h
Gust
km/h
Spd
kts
Gust
kts
20/11:49pm 21.6 20.8 19.2 86 1.5 E 22 30 12 16 1018.5 1018.0 0.0
20/11:30pm 21.7 21.4 19.1 85 1.7 E 19 26 10 14 1018.6 1018.1 0.0
20/11:00pm 22.0 22.0 19.0 83 1.9 E 17 24 9 13 1018.7 1018.2 0.0
20/10:30pm 21.9 21.3 18.5 81 2.1 ENE 19 28 10 15 1018.9 1018.4 0.0
20/10:00pm 22.1 21.6 18.7 81 2.1 E 19 24 10 13 1018.9 1018.4 0.0
20/09:30pm 22.0 21.8 18.4 80 2.3 ENE 17 32 9 17 1018.8 1018.3 0.0
20/09:00pm 21.8 21.0 18.4 81 2.1 ENE 20 28 11 15 1018.7 1018.2 0.0
20/08:30pm 21.8 20.9 17.8 78 2.5 ENE 19 26 10 14 1018.7 1018.2 0.0
20/08:00pm 21.7 20.7 17.9 79 2.4 ENE 20 28 11 15 1018.5 1018.0 0.0
20/07:30pm 21.3 20.1 18.3 83 1.9 ENE 22 32 12 17 1018.3 1017.8 0.0
20/07:00pm 21.3 19.9 17.9 81 2.1 ENE 22 30 12 16 1017.8 1017.3 0.0
20/06:30pm 21.2 20.2 18.0 82 2.0 ENE 20 28 11 15 1017.6 1017.1 0.0
20/06:00pm 21.3 21.2 18.7 85 1.6 ENE 17 22 9 12 1017.6 1017.1 0.0
20/05:30pm 21.8 21.0 19.2 85 1.7 ENE 22 28 12 15 1017.7 1017.2 0.0
20/05:29pm 21.8 21.0 19.2 85 1.7 ENE 22 32 12 17 1017.7 1017.2 0.0
20/05:00pm 22.3 21.9 19.3 83 1.9 E 20 28 11 15 1017.5 1017.0 0.0
20/04:48pm 22.4 21.9 19.2 82 2.0 E 20 32 11 17 1017.5 1017.0 0.0
20/04:30pm 22.7 21.7 18.9 79 2.4 E 22 30 12 16 1017.4 1016.9 0.0
20/04:00pm 23.0 22.5 19.2 79 2.4 E 20 26 11 14 1017.4 1016.9 0.0
20/03:30pm 22.5 21.9 18.9 80 2.3 E 20 30 11 16 1017.5 1017.0 0.0
20/03:00pm 23.1 21.8 19.1 78 2.5 E 24 32 13 17 1017.5 1017.0 0.0
20/02:30pm 23.7 23.3 19.0 75 3.0 E 19 24 10 13 1017.5 1017.0 0.0
20/02:00pm 23.5 21.8 18.2 72 3.3 E 24 33 13 18 1017.5 1017.0 0.0
20/01:30pm 23.1 21.9 19.3 79 2.4 E 24 30 13 16 1017.6 1017.1 0.0
20/01:00pm 24.4 22.7 19.0 72 3.5 ENE 26 33 14 18 1017.8 1017.3 0.0
20/12:30pm 24.5 23.1 18.9 71 3.6 E 24 32 13 17 1018.0 1017.5 0.0
20/12:00pm 23.7 22.0 18.1 71 3.5 E 24 33 13 18 1018.4 1017.9 0.0
20/11:30am 23.5 22.1 18.8 75 3.0 E 24 35 13 19 1018.7 1018.2 0.0
20/11:00am 24.5 23.1 18.9 71 3.6 E 24 35 13 19 1019.0 1018.5 0.0
20/10:30am 24.4 22.7 19.0 72 3.5 ENE 26 35 14 19 1019.0 1018.5 0.0
20/10:00am 24.3 22.9 18.7 71 3.6 E 24 33 13 18 1019.0 1018.5 0.0
20/09:30am 24.4 22.9 18.6 70 3.7 E 24 32 13 17 1018.8 1018.3 0.0
20/09:00am 23.5 21.5 18.4 73 3.2 ENE 26 39 14 21 1018.8 1018.3 0.0
20/08:30am 23.6 21.1 18.0 71 3.5 E 28 35 15 19 1018.6 1018.1 0.0
20/08:00am 23.4 21.2 17.8 71 3.5 E 26 35 14 19 1018.5 1018.0 0.0
20/07:30am 22.8 21.1 18.1 75 3.0 E 24 30 13 16 1018.4 1017.9 0.0
20/07:00am 21.6 20.3 18.2 81 2.1 E 22 28 12 15 1018.3 1017.8 0.0
20/06:30am 21.3 20.4 17.7 80 2.2 ENE 19 26 10 14 1018.1 1017.6 0.0
20/06:00am 21.0 20.6 18.0 83 1.9 ENE 17 24 9 13 1017.9 1017.4 0.0
20/05:30am 21.3 20.4 18.1 82 2.0 E 20 30 11 16 1017.7 1017.2 0.0
20/05:00am 21.3 20.0 18.1 82 2.0 E 22 32 12 17 1017.4 1016.9 0.0
20/04:30am 21.1 20.0 17.7 81 2.1 E 20 30 11 16 1017.3 1016.8 0.0
20/04:00am 21.2 19.5 18.0 82 2.0 E 24 33 13 18 1017.1 1016.6 0.0
20/03:30am 21.3 19.6 18.1 82 2.0 E 24 32 13 17 1017.2 1016.7 0.0
20/03:00am 21.7 19.0 18.5 82 2.0 ENE 30 37 16 20 1017.6 1017.1 0.0
20/02:30am 21.7 20.3 18.9 84 1.8 ENE 24 32 13 17 1017.8 1017.3 0.0
20/02:00am 21.4 20.5 19.0 86 1.5 E 22 33 12 18 1018.0 1017.5 0.0
20/01:30am 21.8 21.4 19.0 84 1.8 E 19 30 10 16 1018.3 1017.8 0.0
20/01:00am 21.9 21.6 19.1 84 1.8 E 19 28 10 15 1018.7 1018.2 0.0
20/12:30am 21.9 20.8 18.7 82 2.0 ENE 22 28 12 15 1018.9 1018.4 0.0
20/12:00am 21.9 21.2 18.7 82 2.0 ENE 20 26 11 14 1019.1 1018.6 0.0
 
Date/Time
EDT
Temp
°C
App
Temp
°C
Dew
Point
°C
Rel
Hum
%
Delta-T
°C
Wind Press
QNH
hPa
Press
MSL
hPa
Rain since
9am
mm
Dir  Spd
km/h
Gust
km/h
Spd
kts
Gust
kts
19/11:30pm 21.7 21.5 18.5 82 2.0 ENE 17 22 9 12 1019.4 1019.0 0.0
19/11:00pm 21.9 21.3 18.5 81 2.1 ENE 19 32 10 17 1019.5 1019.1 0.0
19/10:30pm 22.1 21.6 18.7 81 2.1 ENE 19 26 10 14 1019.6 1019.2 0.0
19/10:00pm 22.3 21.8 19.1 82 2.0 ENE 20 26 11 14 1019.5 1019.1 0.0
19/09:30pm 22.2 21.5 18.6 80 2.3 ENE 20 28 11 15 1019.3 1018.9 0.0
19/09:00pm 22.2 21.5 18.6 80 2.3 ENE 20 28 11 15 1019.2 1018.8 0.0
19/08:30pm 22.2 21.4 18.4 79 2.4 ENE 20 28 11 15 1019.1 1018.6 0.0
19/08:00pm 22.1 20.7 18.7 81 2.1 ENE 24 35 13 19 1018.8 1018.3 0.0
19/07:30pm 22.2 21.0 19.2 83 1.9 ENE 24 32 13 17 1018.5 1018.0 0.0
19/07:00pm 22.2 21.4 19.2 83 1.9 ENE 22 32 12 17 1018.2 1017.7 0.0
19/06:30pm 22.5 21.7 19.3 82 2.0 ENE 22 30 12 16 1017.9 1017.4 0.0
19/06:00pm 22.7 22.7 19.7 83 1.9 E 19 26 10 14 1017.7 1017.2 0.0
19/05:30pm 22.7 22.1 19.7 83 1.9 ENE 22 30 12 16 1017.7 1017.2 0.0
19/05:00pm 23.4 23.0 19.3 78 2.6 ENE 20 30 11 16 1017.5 1017.0 0.0
19/04:30pm 23.8 22.4 19.7 78 2.6 ENE 26 33 14 18 1017.3 1016.8 0.0
19/04:00pm 24.2 23.3 19.1 73 3.3 ENE 22 33 12 18 1017.0 1016.5 0.0
19/03:30pm 24.4 23.3 19.5 74 3.2 ENE 24 32 13 17 1016.9 1016.4 0.0
19/03:00pm 24.9 23.9 19.7 73 3.4 ENE 24 32 13 17 1017.0 1016.5 0.0
19/02:30pm 24.8 22.5 19.4 72 3.5 ENE 30 41 16 22 1017.0 1016.5 0.0
19/02:00pm 25.0 23.4 19.1 70 3.8 ENE 26 35 14 19 1017.3 1016.8 0.0
19/01:30pm 24.5 22.4 18.9 71 3.6 ENE 28 37 15 20 1017.5 1017.0 0.0
19/01:00pm 25.4 23.8 19.3 69 3.9 ENE 26 37 14 20 1017.7 1017.2 0.0
19/12:30pm 25.6 23.9 19.9 70 3.7 ENE 28 37 15 20 1017.9 1017.4 0.0
19/12:00pm 25.5 23.7 20.3 73 3.4 ENE 30 39 16 21 1018.1 1017.6 0.0
19/11:30am 24.8 22.4 19.2 71 3.6 ENE 30 41 16 22 1018.4 1017.9 0.0
19/11:00am 24.5 22.5 19.1 72 3.5 ENE 28 37 15 20 1018.7 1018.2 0.0
19/10:30am 24.8 22.9 19.4 72 3.5 ENE 28 39 15 21 1019.0 1018.5 0.0
19/10:00am 24.7 23.2 19.5 73 3.4 ENE 26 37 14 20 1019.1 1018.6 0.0
19/09:30am 24.9 23.2 19.7 73 3.4 ENE 28 37 15 20 1019.0 1018.5 0.0
19/09:00am 23.7 21.3 19.0 75 3.0 E 30 37 16 20 1019.0 1018.5 0.0
19/08:30am 23.3 21.2 19.0 77 2.7 ENE 28 37 15 20 1018.8 1018.3 0.0
19/08:00am 23.4 22.5 19.1 77 2.7 ENE 22 33 12 18 1018.8 1018.3 0.0
19/07:30am 23.0 22.6 19.4 80 2.3 ENE 20 30 11 16 1018.6 1018.1 0.0
19/07:00am 22.9 21.6 19.1 79 2.4 ENE 24 35 13 19 1018.4 1017.9 0.0
19/06:30am 22.0 22.0 19.0 83 1.9 E 17 26 9 14 1018.3 1017.8 0.0
19/06:00am 21.6 21.4 18.6 83 1.9 ENE 17 22 9 12 1018.1 1017.6 0.0
19/05:30am 21.8 22.3 19.2 85 1.7 ENE 15 20 8 11 1017.9 1017.4 0.0
19/05:00am 21.9 22.0 19.1 84 1.8 E 17 28 9 15 1017.7 1017.2 0.0
19/04:30am 21.6 21.6 19.0 85 1.6 ENE 17 20 9 11 1017.6 1017.1 0.0
19/04:00am 21.6 22.0 19.0 85 1.6 ENE 15 20 8 11 1017.5 1017.0 0.0
19/03:30am 21.8 21.4 19.0 84 1.8 E 19 28 10 15 1017.4 1016.9 0.0
19/03:00am 21.9 22.0 19.1 84 1.8 E 17 24 9 13 1017.5 1017.0 0.0
19/02:30am 22.1 21.7 19.3 84 1.8 E 20 30 11 16 1017.7 1017.2 0.0
19/02:00am 21.8 21.9 19.2 85 1.7 E 17 26 9 14 1017.9 1017.4 0.0
19/01:30am 22.0 22.2 19.4 85 1.7 E 17 24 9 13 1018.1 1017.6 0.0
19/01:00am 22.0 22.2 19.4 85 1.7 E 17 22 9 12 1018.3 1017.8 0.0
19/12:30am 22.1 21.8 19.5 85 1.7 ENE 20 26 11 14 1018.5 1018.0 0.0
19/12:00am 22.2 21.6 19.7 86 1.6 ENE 22 32 12 17 1018.4 1017.9 0.0
 
Date/Time
EDT
Temp
°C
App
Temp
°C
Dew
Point
°C
Rel
Hum
%
Delta-T
°C
Wind Press
QNH
hPa
Press
MSL
hPa
Rain since
9am
mm
Dir  Spd
km/h
Gust
km/h
Spd
kts
Gust
kts
18/11:45pm 22.0 20.9 19.5 86 1.6 ENE 24 32 13 17 1018.4 1017.9 0.0
18/11:34pm 22.3 22.7 19.8 86 1.6 ENE 17 26 9 14 1018.4 1017.9 0.0
18/11:30pm 22.3 22.3 19.8 86 1.6 ENE 19 24 10 13 1018.5 1018.0 0.0
18/11:00pm 22.0 21.8 19.4 85 1.7 ENE 19 28 10 15 1018.9 1018.4 0.0
18/10:59pm 22.1 22.0 19.5 85 1.7 ENE 19 28 10 15 1018.9 1018.4 0.0
18/10:30pm 22.0 21.8 19.4 85 1.7 ENE 19 28 10 15 1019.1 1018.6 0.0
18/10:00pm 22.2 22.1 19.6 85 1.7 ENE 19 26 10 14 1019.1 1018.6 0.0
18/09:30pm 22.3 21.3 19.7 85 1.7 ENE 24 33 13 18 1019.2 1018.8 0.0
18/09:00pm 22.5 22.7 20.2 87 1.5 E 19 26 10 14 1019.2 1018.8 0.0
18/08:30pm 22.4 22.5 20.3 88 1.4 E 20 30 11 16 1018.9 1018.4 0.0
18/08:22pm 22.4 22.5 20.3 88 1.4 E 20 32 11 17 1018.9 1018.4 0.0
18/08:21pm 22.3 22.3 20.2 88 1.4 E 20 32 11 17 1018.9 1018.4 0.0
18/08:00pm 22.6 22.9 20.5 88 1.4 ENE 19 28 10 15 1018.8 1018.3 0.0
18/07:30pm 22.6 22.9 20.5 88 1.4 E 19 26 10 14 1018.7 1018.2 0.0
18/07:24pm 22.6 22.7 20.3 87 1.5 E 20 28 11 15 1018.6 1018.1 0.0
18/07:00pm 22.5 22.1 20.2 87 1.5 ENE 22 30 12 16 1018.4 1017.9 0.0
18/06:30pm 22.6 22.6 20.1 86 1.6 ENE 20 32 11 17 1018.0 1017.5 0.0
18/06:00pm 22.7 22.7 20.2 86 1.6 ENE 20 26 11 14 1017.9 1017.4 0.0
18/05:55pm 22.8 22.9 20.3 86 1.6 ENE 20 28 11 15 1017.9 1017.4 0.0
18/05:30pm 23.1 23.8 20.4 85 1.8 E 17 24 9 13 1017.9 1017.4 0.0
18/05:00pm 23.1 23.2 20.4 85 1.8 E 20 28 11 15 1017.8 1017.3 0.0
18/04:30pm 23.4 23.1 20.3 83 2.0 E 22 32 12 17 1017.7 1017.2 0.0
18/04:00pm 23.6 22.5 20.3 82 2.1 E 26 32 14 17 1017.6 1017.1 0.0
18/03:30pm 23.8 22.7 20.3 81 2.3 E 26 33 14 18 1017.5 1017.0 0.0
18/03:00pm 24.0 24.2 20.5 81 2.3 ENE 20 30 11 16 1017.4 1016.9 0.0
18/02:30pm 23.9 23.0 20.6 82 2.2 E 26 35 14 19 1017.7 1017.2 0.0
18/02:00pm 24.2 23.7 20.7 81 2.3 E 24 32 13 17 1017.9 1017.4 0.0
18/01:30pm 24.3 24.0 20.4 79 2.5 E 22 33 12 18 1018.0 1017.5 0.0
18/01:00pm 24.2 22.5 19.9 77 2.8 E 28 33 15 18 1018.4 1017.9 0.0
18/12:30pm 24.4 23.1 19.9 76 2.9 E 26 35 14 19 1018.9 1018.4 0.0
18/12:00pm 24.6 23.4 20.1 76 2.9 E 26 33 14 18 1019.2 1018.8 0.0

Other formats

Comma delimited format used in spreadsheet applications
http://www.bom.gov.au/fwo/IDN60801/IDN60801.94996.axf

JavaScript Object Notation format (JSON) in row-major order
http://www.bom.gov.au/fwo/IDN60801/IDN60801.94996.json

Data quality

Most of these data are generated automatically and are frequently updated. Quality checks on data are not normally performed. It is possible for incorrect values to appear. Refer to information at About Latest Weather Observations and please check the disclaimer before using these data.